KABQ Airport Information

Runway Information
Runway 03 Length 10000 ft width 150 ft
Elevation 5305 ft Threshold 0 ft Heading 45
Runway 21 Length 10000 ft Width 150 ft
Elevation 5316 ft Threshold 0 ft Heading 225
Runway 08 Length 13793 ft width 150 ft
Elevation 5315 ft Threshold 0 ft Heading 90
Runway 26 Length 13793 ft Width 150 ft
Elevation 5355 ft Threshold 0 ft Heading 270
Runway 12 Length 6000 ft width 150 ft
Elevation 5312 ft Threshold 0 ft Heading 129
Runway 30 Length 6000 ft Width 150 ft
Elevation 5314 ft Threshold 0 ft Heading 309
Runway 17 Length 10000 ft width 150 ft
Elevation 5321 ft Threshold 0 ft Heading 183
Runway 35 Length 10000 ft Width 150 ft
Elevation 5314 ft Threshold 0 ft Heading 3
Airport Frequencies
Airport Navaids
Airport Weather Information & NOTAM
ADDS - METARS form results

(1849 UTC 17 July 2018)
 
METAR text: KABQ 171752Z 22004KT 10SM FEW060 FEW150 28/15 A3029 RMK AO2 SLP169 TCU DSNT N AND S AND W T02780150 10278 20194 58004
Conditions at: KABQ (ALBUQUERQUE , NM, US) observed 1752 UTC 17 July 2018
Temperature: 27.8°C (82°F)
Dewpoint: 15.0°C (59°F) [RH = 46%]
Pressure (altimeter): 30.29 inches Hg (1025.8 mb)
[Sea-level pressure: 1016.9 mb]
Winds: from the SW (220 degrees) at 5 MPH (4 knots; 2.1 m/s)
Visibility: 10 or more miles (16+ km)
Ceiling: at least 12,000 feet AGL
Clouds: few clouds at 6000 feet AGL
few clouds at 15000 feet AGL
Weather: no significant weather observed at this time